Bookmark and Share
Track history (hours):
 

Seaexpressii

Last reported at 2014-Apr-23 23:33 UTC. Time now 2014-Apr-24 00:28 UTC.
Position N 26°04' W 080°08'.

Length 38 m; draft 2 m.

Type: Ship. MMSI: 356449000.

NotesDate/timePositionNaut miles runAvg speedWind from/ knotsBaromVisibWave heightAir tempDewpointWater temp
2014-Apr-23 23:33N 26°04' W 080°08'0 0.0
2014-Apr-23 22:34N 26°04' W 080°08'0 0.0
2014-Apr-23 21:34N 26°04' W 080°08'0 0.0
2014-Apr-23 20:34N 26°04' W 080°08'0 0.0
2014-Apr-23 19:34N 26°04' W 080°08'0 0.0
2014-Apr-23 18:33N 26°04' W 080°08'0 0.0
2014-Apr-23 17:34N 26°04' W 080°08'0 0.0
2014-Apr-23 16:33N 26°04' W 080°08'0 0.0
2014-Apr-23 15:33N 26°04' W 080°08'1 1.0
2014-Apr-23 14:33N 26°04' W 080°07'7 6.6
2014-Apr-23 13:33N 26°05' W 079°60'10 9.6
2014-Apr-23 12:33N 26°05' W 079°49'9 9.3
2014-Apr-23 11:33N 26°05' W 079°38'10 9.6
2014-Apr-23 10:33N 26°05' W 079°28'1010.0
2014-Apr-23 09:31N 26°05' W 079°16'30 0.8
2014-Apr-21 20:21N 26°26' W 079°40'8 9.7
2014-Apr-21 19:33N 26°20' W 079°46'1010.1
2014-Apr-21 18:33N 26°14' W 079°55'1010.2
2014-Apr-21 17:33N 26°06' W 080°02'6 5.7
2014-Apr-21 16:34N 26°04' W 080°08'0 0.0
2014-Apr-21 15:34N 26°04' W 080°08'0 0.0
2014-Apr-21 14:34N 26°04' W 080°08'0 0.0
2014-Apr-21 13:34N 26°04' W 080°08'0 0.0
2014-Apr-21 12:33N 26°04' W 080°08'0 0.0
2014-Apr-21 11:34N 26°04' W 080°08'0 0.0
2014-Apr-21 10:33N 26°04' W 080°08'0 0.0
2014-Apr-21 09:33N 26°04' W 080°08'0 0.0
2014-Apr-21 08:33N 26°04' W 080°08'0 0.0
2014-Apr-21 07:33N 26°04' W 080°08'0 0.0
2014-Apr-21 06:33N 26°04' W 080°08'0 0.0
2014-Apr-21 05:33N 26°04' W 080°08'0 0.0
2014-Apr-21 04:33N 26°04' W 080°08'0 0.0
2014-Apr-21 03:33N 26°04' W 080°08'0 0.0
2014-Apr-21 02:34N 26°04' W 080°08'0 0.0
2014-Apr-21 01:34N 26°04' W 080°08'0 0.0
2014-Apr-21 00:33N 26°04' W 080°08'0 0.0
2014-Apr-20 23:34N 26°04' W 080°08'0 0.0
2014-Apr-20 22:33N 26°04' W 080°08'0 0.0
2014-Apr-20 21:34N 26°04' W 080°08'4 3.7
2014-Apr-20 20:34N 26°05' W 080°04'1110.8
2014-Apr-20 19:33N 26°02' W 079°53'1110.7
2014-Apr-20 18:33N 25°59' W 079°41'7 0.2
2014-Apr-18 23:09N 26°05' W 079°37'6 9.7
2014-Apr-18 22:33N 26°05' W 079°44'10 9.7
2014-Apr-18 21:33N 26°05' W 079°54'9 9.5
2014-Apr-18 20:33N 26°06' W 080°05'3 3.2
2014-Apr-18 19:34N 26°04' W 080°08'0 0.0
2014-Apr-18 18:34N 26°04' W 080°08'0 0.0
2014-Apr-18 17:34N 26°04' W 080°08'0 0.0
2014-Apr-18 16:34N 26°04' W 080°08'0 0.0
2014-Apr-18 15:34N 26°04' W 080°08'0 0.0
2014-Apr-18 14:34N 26°04' W 080°08'6 5.7
2014-Apr-18 13:34N 26°03' W 080°01'1110.7
2014-Apr-18 12:33N 25°58' W 079°51'1111.2
2014-Apr-18 11:33N 25°52' W 079°41'2 0.2
2014-Apr-18 00:03N 25°53' W 079°39'3 6.9
2014-Apr-17 23:33N 25°54' W 079°42'7 6.8
2014-Apr-17 22:34N 25°58' W 079°49'7 7.1
2014-Apr-17 21:33N 26°01' W 079°56'9 8.8
2014-Apr-17 20:33N 26°05' W 080°04'3 3.4
2014-Apr-17 19:33N 26°04' W 080°08'0 0.0
2014-Apr-17 18:33N 26°04' W 080°08'0 0.0
2014-Apr-17 17:33N 26°04' W 080°08'0 0.0
2014-Apr-17 16:33N 26°04' W 080°08'0 0.0
2014-Apr-17 15:33N 26°04' W 080°08'0 0.0
2014-Apr-17 14:33N 26°04' W 080°08'0 0.0
2014-Apr-17 13:34N 26°04' W 080°08'0 0.0
2014-Apr-17 12:34N 26°04' W 080°08'0 0.0
2014-Apr-17 11:34N 26°04' W 080°08'5 5.1
2014-Apr-17 10:34N 26°05' W 080°02'7 7.4
2014-Apr-17 09:33N 26°05' W 079°54'7 6.5
2014-Apr-17 08:33N 26°04' W 079°47'7 6.6
2014-Apr-17 07:33N 26°03' W 079°39'7 7.0
2014-Apr-17 06:33N 26°03' W 079°32'  
2014-Apr-14 21:34N 26°04' W 079°44'10 9.5
2014-Apr-14 20:34N 26°04' W 079°54'10 9.7
2014-Apr-14 19:34N 26°05' W 080°05'3 3.1
2014-Apr-14 18:34N 26°04' W 080°08'0 0.0
2014-Apr-14 17:34N 26°04' W 080°08'0 0.0
2014-Apr-14 16:34N 26°04' W 080°08'0 0.0
2014-Apr-14 15:34N 26°04' W 080°08'0 0.0
2014-Apr-14 14:34N 26°04' W 080°08'0 0.0
2014-Apr-14 13:34N 26°04' W 080°08'0 0.0
2014-Apr-14 11:34N 26°04' W 080°08'0 0.0
2014-Apr-14 10:34N 26°04' W 080°08'0 0.0
2014-Apr-14 09:33N 26°04' W 080°08'0 0.0
2014-Apr-14 08:33N 26°04' W 080°08'0 0.0
2014-Apr-14 07:33N 26°04' W 080°08'0 0.0
2014-Apr-14 06:33N 26°04' W 080°08'0 0.0
2014-Apr-14 05:33N 26°04' W 080°08'  

Dump ship's entire track history

sailing weather and tide predictions

Seaexpressii — HO4619 — position and weather